createdAt,value
2022-07-31T00:00:26.640Z,4.28
2022-07-31T00:02:54.896Z,4.53
2022-07-31T00:05:23.175Z,4.57
2022-07-31T00:07:51.414Z,4.15
2022-07-31T00:10:19.499Z,4.93
2022-07-31T00:12:47.481Z,4.43
2022-07-31T00:15:17.004Z,4.63
2022-07-31T00:17:46.030Z,4.85
2022-07-31T00:20:16.156Z,4.93
2022-07-31T00:22:44.809Z,4.78
2022-07-31T00:25:14.052Z,5.05
2022-07-31T00:27:42.884Z,3.90
2022-07-31T00:30:12.947Z,4.32
2022-07-31T00:32:42.710Z,4.28
2022-07-31T00:35:12.420Z,4.28
2022-07-31T00:37:41.674Z,5.00
2022-07-31T00:40:11.679Z,4.40
2022-07-31T00:42:40.037Z,4.32
2022-07-31T00:45:10.204Z,4.25
2022-07-31T00:47:43.571Z,4.97
2022-07-31T00:50:12.376Z,4.72
2022-07-31T00:52:40.750Z,4.70
2022-07-31T00:55:10.508Z,4.63
2022-07-31T00:57:38.806Z,4.88
2022-07-31T01:00:07.980Z,4.85
2022-07-31T01:02:37.063Z,5.25
2022-07-31T01:05:07.443Z,4.80
2022-07-31T01:07:35.662Z,4.85
2022-07-31T01:10:10.794Z,4.50
2022-07-31T01:12:47.334Z,5.07
2022-07-31T01:15:20.503Z,5.03
2022-07-31T01:17:50.735Z,4.53
2022-07-31T01:20:20.509Z,4.45
2022-07-31T01:23:08.680Z,4.75
2022-07-31T01:25:47.370Z,4.28
2022-07-31T01:28:25.393Z,4.53
2022-07-31T01:31:24.247Z,4.27
2022-07-31T01:33:53.234Z,4.55
2022-07-31T01:36:23.898Z,4.32
2022-07-31T01:38:55.132Z,4.97
2022-07-31T01:41:28.015Z,4.60
2022-07-31T01:43:58.199Z,4.43
2022-07-31T01:46:29.929Z,4.82
2022-07-31T01:48:59.092Z,4.45
2022-07-31T01:51:28.795Z,4.50
2022-07-31T01:53:57.346Z,4.60
2022-07-31T01:56:26.356Z,4.63
2022-07-31T01:58:57.389Z,3.80
2022-07-31T02:01:28.681Z,4.50
2022-07-31T02:04:00.586Z,4.40
2022-07-31T02:06:30.416Z,4.28
2022-07-31T02:08:59.437Z,4.37
2022-07-31T02:11:27.447Z,4.25
2022-07-31T02:13:59.038Z,4.63
2022-07-31T02:16:29.627Z,4.50
2022-07-31T02:19:00.339Z,4.22
2022-07-31T02:21:28.862Z,4.50
2022-07-31T02:23:57.178Z,4.43
2022-07-31T02:26:27.383Z,4.55
2022-07-31T02:28:55.640Z,4.10
2022-07-31T02:31:24.503Z,4.13
2022-07-31T02:33:54.627Z,4.17
2022-07-31T02:36:23.328Z,4.25
2022-07-31T02:38:52.906Z,4.30
2022-07-31T02:41:22.380Z,4.40
2022-07-31T02:43:50.998Z,4.40
2022-07-31T02:46:20.028Z,3.97
2022-07-31T02:48:49.478Z,4.10
2022-07-31T02:51:19.391Z,4.13
2022-07-31T02:53:47.658Z,3.90
2022-07-31T02:56:16.839Z,4.20
2022-07-31T02:58:44.930Z,4.60
2022-07-31T03:01:14.394Z,4.20
2022-07-31T03:03:43.009Z,4.68
2022-07-31T03:06:11.133Z,4.38
2022-07-31T03:08:40.498Z,4.53
2022-07-31T03:11:09.485Z,4.10
2022-07-31T03:13:38.923Z,4.40
2022-07-31T03:16:11.306Z,4.20
2022-07-31T03:18:40.629Z,4.22
2022-07-31T03:21:11.274Z,4.40
2022-07-31T03:23:41.742Z,3.87
2022-07-31T03:26:10.391Z,3.83
2022-07-31T03:28:38.423Z,4.00
2022-07-31T03:31:09.026Z,3.85
2022-07-31T03:33:37.092Z,4.00
2022-07-31T03:36:05.549Z,3.80
2022-07-31T03:38:42.301Z,4.40
2022-07-31T03:41:13.343Z,4.15
2022-07-31T03:43:44.222Z,3.85
2022-07-31T03:46:17.931Z,3.58
2022-07-31T03:48:46.896Z,4.60
2022-07-31T03:51:15.386Z,4.38
2022-07-31T03:53:44.406Z,4.50
2022-07-31T03:56:14.916Z,3.97
2022-07-31T03:58:42.985Z,4.60
2022-07-31T04:01:17.252Z,4.93
2022-07-31T04:03:48.703Z,4.75
2022-07-31T04:06:16.733Z,4.40
2022-07-31T04:08:44.751Z,4.18
2022-07-31T04:11:14.504Z,4.55
2022-07-31T04:13:43.151Z,5.47
2022-07-31T04:16:11.239Z,5.30
2022-07-31T04:18:39.219Z,4.50
2022-07-31T04:21:07.240Z,4.88
2022-07-31T04:23:35.304Z,4.65
2022-07-31T04:26:04.036Z,5.13
2022-07-31T04:28:33.675Z,4.70
2022-07-31T04:31:01.730Z,4.90
2022-07-31T04:33:29.745Z,4.63
2022-07-31T04:35:57.782Z,4.80
2022-07-31T04:38:26.092Z,5.40
2022-07-31T04:40:54.434Z,5.13
2022-07-31T04:43:22.409Z,5.00
2022-07-31T04:45:51.836Z,5.50
2022-07-31T04:48:19.837Z,5.22
2022-07-31T04:50:48.080Z,5.23
2022-07-31T04:53:16.124Z,5.32
2022-07-31T04:56:04.131Z,5.43
2022-07-31T04:58:33.007Z,5.47
2022-07-31T05:01:02.508Z,5.43
2022-07-31T05:03:30.545Z,5.60
2022-07-31T05:05:58.558Z,5.55
2022-07-31T05:08:26.591Z,6.00
2022-07-31T05:11:12.051Z,5.75
2022-07-31T05:13:40.054Z,5.40
2022-07-31T05:16:12.687Z,6.40
2022-07-31T05:18:40.702Z,5.63
2022-07-31T05:21:08.754Z,6.38
2022-07-31T05:23:36.801Z,6.07
2022-07-31T05:26:05.191Z,5.57
2022-07-31T05:28:33.416Z,5.80
2022-07-31T05:31:01.521Z,5.20
2022-07-31T05:33:31.050Z,5.18
2022-07-31T05:35:59.388Z,5.28
2022-07-31T05:38:28.014Z,5.45
2022-07-31T05:40:56.068Z,5.43
2022-07-31T05:43:24.208Z,5.85
2022-07-31T05:45:52.320Z,5.53
2022-07-31T05:48:20.535Z,5.95
2022-07-31T05:50:51.548Z,6.00
2022-07-31T05:53:20.579Z,6.43
2022-07-31T05:55:50.026Z,6.15
2022-07-31T05:58:20.136Z,6.28
2022-07-31T06:00:51.008Z,5.57
2022-07-31T06:03:24.782Z,5.85
2022-07-31T06:05:54.306Z,5.73
2022-07-31T06:08:22.396Z,6.00
2022-07-31T06:10:50.505Z,5.47
2022-07-31T06:13:19.441Z,5.90
2022-07-31T06:15:49.257Z,5.57
2022-07-31T06:18:18.025Z,5.43
2022-07-31T06:20:46.214Z,5.82
2022-07-31T06:23:22.942Z,6.10
2022-07-31T06:25:58.060Z,5.75
2022-07-31T06:28:37.853Z,5.60
2022-07-31T06:31:18.673Z,5.70
2022-07-31T06:33:48.072Z,6.13
2022-07-31T06:36:16.696Z,5.93
2022-07-31T06:38:46.357Z,6.07
2022-07-31T06:41:35.507Z,5.72
2022-07-31T06:44:03.578Z,5.27
2022-07-31T06:46:31.588Z,5.82
2022-07-31T06:48:59.612Z,5.65
2022-07-31T06:51:31.936Z,6.05
2022-07-31T06:54:03.183Z,5.90
2022-07-31T06:56:31.676Z,6.10
2022-07-31T06:58:59.895Z,5.90
2022-07-31T07:01:28.078Z,6.20
2022-07-31T07:03:56.683Z,6.28
2022-07-31T07:06:25.217Z,6.55
2022-07-31T07:08:53.744Z,5.70
2022-07-31T07:11:23.196Z,6.38
2022-07-31T07:13:51.245Z,7.32
2022-07-31T07:16:19.449Z,6.30
2022-07-31T07:18:47.774Z,6.15
2022-07-31T07:21:15.817Z,5.70
2022-07-31T07:23:43.891Z,5.38
2022-07-31T07:26:11.998Z,5.32
2022-07-31T07:28:41.716Z,5.60
2022-07-31T07:31:09.803Z,5.40
2022-07-31T07:33:40.630Z,5.70
2022-07-31T07:36:22.420Z,6.13
2022-07-31T07:38:53.507Z,5.93
2022-07-31T07:41:23.645Z,5.70
2022-07-31T07:43:53.382Z,5.95
2022-07-31T07:46:22.615Z,5.40
2022-07-31T07:48:52.013Z,5.18
2022-07-31T07:51:21.197Z,5.43
2022-07-31T07:53:49.681Z,5.38
2022-07-31T07:56:18.229Z,5.38
2022-07-31T07:58:46.320Z,5.60
2022-07-31T08:01:16.331Z,5.85
2022-07-31T08:03:49.331Z,5.93
2022-07-31T08:06:20.321Z,5.45
2022-07-31T08:08:48.465Z,5.85
2022-07-31T08:11:17.614Z,5.73
2022-07-31T08:13:50.734Z,5.70
2022-07-31T08:16:21.387Z,5.10
2022-07-31T08:18:49.759Z,5.28
2022-07-31T08:21:18.137Z,4.72
2022-07-31T08:23:46.247Z,5.10
2022-07-31T08:26:14.554Z,5.50
2022-07-31T08:28:50.005Z,5.53
2022-07-31T08:31:20.997Z,5.40
2022-07-31T08:33:49.110Z,4.53
2022-07-31T08:36:17.110Z,4.93
2022-07-31T08:38:45.152Z,5.00
2022-07-31T08:41:15.624Z,4.60
2022-07-31T08:44:00.863Z,4.63
2022-07-31T08:46:34.080Z,4.20
2022-07-31T08:49:03.925Z,4.00
2022-07-31T08:51:50.566Z,3.92
2022-07-31T08:54:20.881Z,3.80
2022-07-31T08:56:52.398Z,3.25
2022-07-31T08:59:23.544Z,3.47
2022-07-31T09:01:56.870Z,3.77
2022-07-31T09:04:26.142Z,3.25
2022-07-31T09:06:54.735Z,3.85
2022-07-31T09:09:22.870Z,3.53
2022-07-31T09:11:53.849Z,3.65
2022-07-31T09:14:30.523Z,4.10
2022-07-31T09:17:00.741Z,4.32
2022-07-31T09:19:52.081Z,3.80
2022-07-31T09:22:23.234Z,3.70
2022-07-31T09:24:51.877Z,4.18
2022-07-31T09:27:20.255Z,3.30
2022-07-31T09:29:49.737Z,3.60
2022-07-31T09:32:20.575Z,3.90
2022-07-31T09:34:49.739Z,3.30
2022-07-31T09:37:19.107Z,3.50
2022-07-31T09:39:52.295Z,2.90
2022-07-31T09:42:21.350Z,3.20
2022-07-31T09:44:50.864Z,3.38
2022-07-31T09:47:23.906Z,3.35
2022-07-31T09:49:56.382Z,3.15
2022-07-31T09:52:24.555Z,2.67
2022-07-31T09:55:02.928Z,3.42
2022-07-31T09:57:54.142Z,2.85
2022-07-31T10:00:22.519Z,2.72
2022-07-31T10:02:54.579Z,2.78
2022-07-31T10:05:25.291Z,2.60
2022-07-31T10:07:54.352Z,2.85
2022-07-31T10:10:23.939Z,2.80
2022-07-31T10:12:55.333Z,2.50
2022-07-31T10:15:24.687Z,2.88
2022-07-31T10:17:55.087Z,2.40
2022-07-31T10:20:27.737Z,2.42
2022-07-31T10:23:00.108Z,2.60
2022-07-31T10:25:30.016Z,2.55
2022-07-31T10:27:58.697Z,2.67
2022-07-31T10:30:28.554Z,2.50
2022-07-31T10:32:58.733Z,2.50
2022-07-31T10:35:27.319Z,2.75
2022-07-31T10:38:02.301Z,2.50
2022-07-31T10:40:36.388Z,2.72
2022-07-31T10:43:19.884Z,2.60
2022-07-31T10:45:49.398Z,2.30
2022-07-31T10:48:19.148Z,2.30
2022-07-31T10:50:48.556Z,2.00
2022-07-31T10:53:19.391Z,2.05
2022-07-31T10:55:47.579Z,2.27
2022-07-31T10:58:16.994Z,2.00
2022-07-31T11:00:45.534Z,2.22
2022-07-31T11:03:15.769Z,2.00
2022-07-31T11:06:00.877Z,1.70
2022-07-31T11:08:41.136Z,1.90
2022-07-31T11:11:09.283Z,1.88
2022-07-31T11:13:46.864Z,1.92
2022-07-31T11:16:15.053Z,2.50
2022-07-31T11:18:46.046Z,2.63
2022-07-31T11:21:37.553Z,2.23
2022-07-31T11:24:12.661Z,2.03
2022-07-31T11:26:43.999Z,2.13
2022-07-31T11:29:58.578Z,2.17
2022-07-31T11:32:02.064Z,2.05
2022-07-31T11:34:30.121Z,1.90
2022-07-31T11:36:59.638Z,2.00
2022-07-31T11:39:36.988Z,1.98
2022-07-31T11:42:07.633Z,1.88
2022-07-31T11:44:36.382Z,1.70
2022-07-31T11:48:09.418Z,1.70
2022-07-31T11:50:02.114Z,1.80
2022-07-31T11:52:36.687Z,1.60
2022-07-31T11:55:09.378Z,1.60
2022-07-31T11:57:51.363Z,1.75
2022-07-31T12:00:27.152Z,1.83
2022-07-31T12:02:59.026Z,1.80
2022-07-31T12:05:38.000Z,1.65
2022-07-31T12:08:09.311Z,1.60
2022-07-31T12:10:38.022Z,1.58
2022-07-31T12:13:06.066Z,1.50
2022-07-31T12:15:34.243Z,1.67
2022-07-31T12:18:03.738Z,1.60
2022-07-31T12:20:36.467Z,1.30
2022-07-31T12:23:06.366Z,1.35
2022-07-31T12:25:46.483Z,1.30
2022-07-31T12:28:15.096Z,1.38
2022-07-31T12:30:43.193Z,1.70
2022-07-31T12:33:13.065Z,1.60
2022-07-31T12:35:54.832Z,1.40
2022-07-31T12:38:45.369Z,1.53
2022-07-31T12:41:15.622Z,1.58
2022-07-31T12:43:51.183Z,1.48
2022-07-31T12:46:23.230Z,1.63
2022-07-31T12:48:52.217Z,1.60
2022-07-31T12:51:46.249Z,1.23
2022-07-31T12:54:09.378Z,1.45
2022-07-31T12:56:39.633Z,1.30
2022-07-31T12:59:08.264Z,1.52
2022-07-31T13:01:36.855Z,1.45
2022-07-31T13:04:07.623Z,1.30
2022-07-31T13:06:37.589Z,1.42
2022-07-31T13:09:06.333Z,1.70
2022-07-31T13:11:46.209Z,1.27
2022-07-31T13:14:18.157Z,1.50
2022-07-31T13:16:46.650Z,1.50
2022-07-31T13:19:15.406Z,1.80
2022-07-31T13:21:49.195Z,1.58
2022-07-31T13:24:19.482Z,1.60
2022-07-31T13:26:48.015Z,1.40
2022-07-31T13:29:18.285Z,1.40
2022-07-31T13:31:46.642Z,1.30
2022-07-31T13:34:14.834Z,1.20
2022-07-31T13:36:42.875Z,1.40
2022-07-31T13:39:11.198Z,1.40
2022-07-31T13:41:40.185Z,1.57
2022-07-31T13:44:08.366Z,1.52
2022-07-31T13:46:37.826Z,1.40
2022-07-31T13:49:08.692Z,1.60
2022-07-31T13:51:37.450Z,1.40
2022-07-31T13:54:05.790Z,1.60
2022-07-31T13:56:41.949Z,1.60
2022-07-31T13:59:12.464Z,1.38
2022-07-31T14:02:04.134Z,1.67
2022-07-31T14:04:32.941Z,2.13
2022-07-31T14:07:07.941Z,1.67
2022-07-31T14:09:37.578Z,1.73
2022-07-31T14:12:06.416Z,1.52
2022-07-31T14:14:35.147Z,1.70
2022-07-31T14:17:04.668Z,1.75
2022-07-31T14:19:42.006Z,1.70
2022-07-31T14:22:13.278Z,1.88
2022-07-31T14:24:41.912Z,1.63
2022-07-31T14:27:18.090Z,1.50
2022-07-31T14:29:46.719Z,1.70
2022-07-31T14:32:16.104Z,1.80
2022-07-31T14:34:44.117Z,1.70
2022-07-31T14:37:12.147Z,1.42
2022-07-31T14:39:41.343Z,1.60
2022-07-31T14:42:11.149Z,1.70
2022-07-31T14:44:41.625Z,1.70
2022-07-31T14:47:10.029Z,1.50
2022-07-31T14:50:09.455Z,1.42
2022-07-31T14:52:28.076Z,1.63
2022-07-31T14:54:56.197Z,1.80
2022-07-31T14:57:24.213Z,1.77
2022-07-31T14:59:52.537Z,1.50
2022-07-31T15:02:22.780Z,1.67
2022-07-31T15:04:52.831Z,1.50
2022-07-31T15:07:40.917Z,1.50
2022-07-31T15:10:11.384Z,1.83
2022-07-31T15:12:39.536Z,1.35
2022-07-31T15:15:08.780Z,1.70
2022-07-31T15:17:37.563Z,1.60
2022-07-31T15:20:08.128Z,1.38
2022-07-31T15:22:36.535Z,1.40
2022-07-31T15:25:04.771Z,1.40
2022-07-31T15:27:33.030Z,1.38
2022-07-31T15:30:07.159Z,1.20
2022-07-31T15:32:37.752Z,1.42
2022-07-31T15:35:09.468Z,1.80
2022-07-31T15:37:39.051Z,1.40
2022-07-31T15:40:11.527Z,1.55
2022-07-31T15:42:41.745Z,1.50
2022-07-31T15:45:12.338Z,1.50
2022-07-31T15:47:41.520Z,1.30
2022-07-31T15:50:14.671Z,1.60
2022-07-31T15:52:42.983Z,1.50
2022-07-31T15:55:11.725Z,1.40
2022-07-31T15:57:40.347Z,1.25
2022-07-31T16:00:10.686Z,1.47
2022-07-31T16:02:38.720Z,1.77
2022-07-31T16:05:11.815Z,1.60
2022-07-31T16:08:32.164Z,1.83
2022-07-31T16:10:39.633Z,1.48
2022-07-31T16:13:07.998Z,1.63
2022-07-31T16:15:36.046Z,1.73
2022-07-31T16:18:04.626Z,1.52
2022-07-31T16:20:32.936Z,1.50
2022-07-31T16:23:02.683Z,1.60
2022-07-31T16:25:34.590Z,1.60
2022-07-31T16:28:02.996Z,1.45
2022-07-31T16:30:31.181Z,1.50
2022-07-31T16:32:59.245Z,1.45
2022-07-31T16:35:27.638Z,1.60
2022-07-31T16:37:55.972Z,1.60
2022-07-31T16:40:30.068Z,1.50
2022-07-31T16:43:01.933Z,1.60
2022-07-31T16:45:30.802Z,1.60
2022-07-31T16:47:59.257Z,1.52
2022-07-31T16:50:27.493Z,1.37
2022-07-31T16:52:55.639Z,1.42
2022-07-31T16:55:51.681Z,1.52
2022-07-31T16:58:16.673Z,1.50
2022-07-31T17:00:44.836Z,1.80
2022-07-31T17:04:01.610Z,1.63
2022-07-31T17:06:01.034Z,1.70
2022-07-31T17:08:29.727Z,1.75
2022-07-31T17:10:59.055Z,1.60
2022-07-31T17:13:27.165Z,2.15
2022-07-31T17:15:55.102Z,2.07
2022-07-31T17:18:25.257Z,1.85
2022-07-31T17:20:56.238Z,1.70
2022-07-31T17:23:44.303Z,1.60
2022-07-31T17:26:21.559Z,1.90
2022-07-31T17:28:50.897Z,2.50
2022-07-31T17:31:19.445Z,2.30
2022-07-31T17:33:58.331Z,2.55
2022-07-31T17:36:28.507Z,2.20
2022-07-31T17:38:56.634Z,1.92
2022-07-31T17:41:26.351Z,1.70
2022-07-31T17:43:54.891Z,1.80
2022-07-31T17:46:34.341Z,1.83
2022-07-31T17:49:05.818Z,1.67
2022-07-31T17:51:34.239Z,1.95
2022-07-31T17:54:02.378Z,1.80
2022-07-31T17:56:31.876Z,1.75
2022-07-31T17:59:04.631Z,1.67
2022-07-31T18:01:34.528Z,1.75
2022-07-31T18:04:03.296Z,1.70
2022-07-31T18:06:31.755Z,1.90
2022-07-31T18:09:00.178Z,1.60
2022-07-31T18:11:28.451Z,1.85
2022-07-31T18:14:01.117Z,1.75
2022-07-31T18:16:31.688Z,1.73
2022-07-31T18:18:59.763Z,1.80
2022-07-31T18:21:27.814Z,1.85
2022-07-31T18:23:55.948Z,1.83
2022-07-31T18:26:24.104Z,1.73
2022-07-31T18:28:52.132Z,1.70
2022-07-31T18:31:32.713Z,1.60
2022-07-31T18:34:04.232Z,1.40
2022-07-31T18:36:32.649Z,1.80
2022-07-31T18:39:00.968Z,1.90
2022-07-31T18:41:29.658Z,1.75
2022-07-31T18:43:58.308Z,1.63
2022-07-31T18:46:27.825Z,1.60
2022-07-31T18:48:56.933Z,1.70
2022-07-31T18:51:25.897Z,1.63
2022-07-31T18:53:54.900Z,1.55
2022-07-31T18:56:23.794Z,1.60
2022-07-31T18:58:52.200Z,1.60
2022-07-31T19:01:20.872Z,1.88
2022-07-31T19:03:52.694Z,1.70
2022-07-31T19:06:22.723Z,1.92
2022-07-31T19:08:52.020Z,1.97
2022-07-31T19:11:20.213Z,1.80
2022-07-31T19:13:48.365Z,2.00
2022-07-31T19:16:17.784Z,2.10
2022-07-31T19:18:47.636Z,1.70
2022-07-31T19:21:41.198Z,1.83
2022-07-31T19:24:09.458Z,1.90
2022-07-31T19:26:38.581Z,2.00
2022-07-31T19:29:06.843Z,1.77
2022-07-31T19:31:34.977Z,1.98
2022-07-31T19:34:03.029Z,1.80
2022-07-31T19:36:32.423Z,1.98
2022-07-31T19:39:00.493Z,1.85
2022-07-31T19:41:28.566Z,1.95
2022-07-31T19:43:56.680Z,2.20
2022-07-31T19:46:24.659Z,2.00
2022-07-31T19:48:52.894Z,2.17
2022-07-31T19:51:20.981Z,2.30
2022-07-31T19:53:50.465Z,2.70
2022-07-31T19:56:21.053Z,2.75
2022-07-31T19:58:50.101Z,2.80
2022-07-31T20:01:20.224Z,2.58
2022-07-31T20:03:49.944Z,2.40
2022-07-31T20:06:18.333Z,2.20
2022-07-31T20:08:46.657Z,2.10
2022-07-31T20:11:17.266Z,2.37
2022-07-31T20:13:45.899Z,2.35
2022-07-31T20:16:15.199Z,2.13
2022-07-31T20:18:43.873Z,2.25
2022-07-31T20:21:12.278Z,2.30
2022-07-31T20:23:41.761Z,2.27
2022-07-31T20:26:13.768Z,2.30
2022-07-31T20:28:44.322Z,2.00
2022-07-31T20:31:16.096Z,2.35
2022-07-31T20:33:56.976Z,2.50
2022-07-31T20:36:26.812Z,2.50
2022-07-31T20:38:55.072Z,2.08
2022-07-31T20:41:23.107Z,2.30
2022-07-31T20:43:52.813Z,2.63
2022-07-31T20:46:20.958Z,1.95
2022-07-31T20:48:50.102Z,2.30
2022-07-31T20:51:22.060Z,2.17
2022-07-31T20:53:50.515Z,2.10
2022-07-31T20:56:18.576Z,2.33
2022-07-31T20:58:51.399Z,2.45
2022-07-31T21:01:22.046Z,2.60
2022-07-31T21:03:50.484Z,2.70
2022-07-31T21:06:19.433Z,2.60
2022-07-31T21:08:47.480Z,2.80
2022-07-31T21:11:15.561Z,2.40
2022-07-31T21:13:45.474Z,2.77
2022-07-31T21:16:13.859Z,2.55
2022-07-31T21:18:43.793Z,2.65
2022-07-31T21:21:12.352Z,2.50
2022-07-31T21:23:40.433Z,2.42
2022-07-31T21:26:08.825Z,2.30
2022-07-31T21:28:37.346Z,2.60
2022-07-31T21:31:05.754Z,2.45
2022-07-31T21:33:34.330Z,2.60
2022-07-31T21:36:05.954Z,3.00
2022-07-31T21:38:36.393Z,2.40
2022-07-31T21:41:05.680Z,2.40
2022-07-31T21:43:58.110Z,3.00
2022-07-31T21:46:23.619Z,2.80
2022-07-31T21:48:52.411Z,2.53
2022-07-31T21:51:22.428Z,2.60
2022-07-31T21:53:50.437Z,2.65
2022-07-31T21:56:18.456Z,3.25
2022-07-31T21:58:46.474Z,2.70
2022-07-31T22:01:15.320Z,3.10
2022-07-31T22:03:43.919Z,2.90
2022-07-31T22:06:29.345Z,2.90
2022-07-31T22:08:58.870Z,2.90
2022-07-31T22:11:26.983Z,2.90
2022-07-31T22:13:54.985Z,2.83
2022-07-31T22:16:23.025Z,2.90
2022-07-31T22:18:51.753Z,2.80
2022-07-31T22:21:20.109Z,3.10
2022-07-31T22:23:48.601Z,3.10
2022-07-31T22:26:18.121Z,2.92
2022-07-31T22:28:47.654Z,3.10
2022-07-31T22:31:16.355Z,2.88
2022-07-31T22:33:44.620Z,3.13
2022-07-31T22:36:13.255Z,2.90
2022-07-31T22:38:45.050Z,3.10
2022-07-31T22:41:13.588Z,2.80
2022-07-31T22:44:13.648Z,2.97
2022-07-31T22:46:32.640Z,2.92
2022-07-31T22:49:02.190Z,3.05
2022-07-31T22:51:30.474Z,3.08
2022-07-31T22:53:58.495Z,2.63
2022-07-31T22:56:26.593Z,2.70
2022-07-31T22:58:56.018Z,3.10
2022-07-31T23:01:24.046Z,3.08
2022-07-31T23:03:53.639Z,2.80
2022-07-31T23:06:31.125Z,2.60
2022-07-31T23:09:00.754Z,2.92
2022-07-31T23:11:28.961Z,2.60
2022-07-31T23:13:58.479Z,3.00
2022-07-31T23:16:26.719Z,2.85
2022-07-31T23:18:54.871Z,2.90
2022-07-31T23:21:23.005Z,2.95
2022-07-31T23:23:51.434Z,3.00
2022-07-31T23:26:20.412Z,3.10
2022-07-31T23:28:48.932Z,3.10
2022-07-31T23:31:18.805Z,2.93
2022-07-31T23:33:48.045Z,2.97
2022-07-31T23:36:16.929Z,3.53
2022-07-31T23:38:45.726Z,3.00
2022-07-31T23:41:14.220Z,3.22
2022-07-31T23:43:55.375Z,3.00
2022-07-31T23:46:26.927Z,3.40
2022-07-31T23:48:56.302Z,3.17
2022-07-31T23:51:24.953Z,3.67
2022-07-31T23:53:53.282Z,3.22
2022-07-31T23:56:21.515Z,3.00
2022-07-31T23:58:49.933Z,3.13
